createdAt,value
2023-04-18T00:01:54.077Z,100051.63
2023-04-18T00:04:57.170Z,100056.91
2023-04-18T00:07:59.590Z,100056.78
2023-04-18T00:11:02.465Z,100055.06
2023-04-18T00:14:06.314Z,100059.41
2023-04-18T00:17:09.541Z,100059.38
2023-04-18T00:20:12.746Z,100058.78
2023-04-18T00:23:16.369Z,100052.47
2023-04-18T00:26:18.730Z,100067.13
2023-04-18T00:29:23.269Z,100068.72
2023-04-18T00:32:28.478Z,100065.97
2023-04-18T00:35:32.126Z,100073.06
2023-04-18T00:38:35.465Z,100072.94
2023-04-18T00:41:38.604Z,100067.69
2023-04-18T00:44:41.120Z,100068.44
2023-04-18T00:47:45.845Z,100075.41
2023-04-18T00:50:48.237Z,100064.97
2023-04-18T00:53:51.457Z,100070.13
2023-04-18T00:56:53.835Z,100077.97
2023-04-18T00:59:56.785Z,100077.00
2023-04-18T01:02:59.444Z,100071.88
2023-04-18T01:06:02.631Z,100065.69
2023-04-18T01:09:07.876Z,100071.94
2023-04-18T01:12:10.909Z,100064.03
2023-04-18T01:15:13.257Z,100065.72
2023-04-18T01:18:16.919Z,100060.38
2023-04-18T01:21:20.283Z,100060.47
2023-04-18T01:24:25.868Z,100064.84
2023-04-18T01:27:28.166Z,100063.06
2023-04-18T01:30:31.126Z,100062.22
2023-04-18T01:33:34.010Z,100059.84
2023-04-18T01:36:37.938Z,100057.94
2023-04-18T01:39:40.276Z,100058.84
2023-04-18T01:42:43.140Z,100063.91
2023-04-18T01:45:46.310Z,100056.84
2023-04-18T01:48:49.213Z,100060.38
2023-04-18T01:51:51.750Z,100070.09
2023-04-18T01:54:57.112Z,100063.03
2023-04-18T01:57:59.432Z,100062.88
2023-04-18T02:01:02.709Z,100057.53
2023-04-18T02:04:05.373Z,100061.53
2023-04-18T02:07:08.172Z,100064.00
2023-04-18T02:10:11.327Z,100070.81
2023-04-18T02:13:15.564Z,100072.41
2023-04-18T02:16:19.838Z,100071.84
2023-04-18T02:19:24.287Z,100066.47
2023-04-18T02:22:26.641Z,100066.31
2023-04-18T02:25:29.828Z,100073.22
2023-04-18T02:28:32.533Z,100066.31
2023-04-18T02:31:39.955Z,100074.16
2023-04-18T02:34:42.249Z,100064.37
2023-04-18T02:37:45.184Z,100071.37
2023-04-18T02:40:48.182Z,100075.72
2023-04-18T02:43:51.062Z,100080.09
2023-04-18T02:46:53.644Z,100076.72
2023-04-18T02:49:56.822Z,100083.06
2023-04-18T02:53:01.714Z,100083.03
2023-04-18T02:56:05.404Z,100080.41
2023-04-18T02:59:08.646Z,100082.94
2023-04-18T03:02:12.496Z,100077.94
2023-04-18T03:05:17.080Z,100084.03
2023-04-18T03:08:20.158Z,100081.22
2023-04-18T03:11:22.529Z,100083.78
2023-04-18T03:14:25.533Z,100088.91
2023-04-18T03:17:28.668Z,100095.00
2023-04-18T03:20:31.547Z,100095.81
2023-04-18T03:23:33.924Z,100089.97
2023-04-18T03:26:38.054Z,100093.19
2023-04-18T03:29:41.171Z,100099.16
2023-04-18T03:32:44.470Z,100095.66
2023-04-18T03:35:46.987Z,100093.06
2023-04-18T03:38:50.096Z,100093.12
2023-04-18T03:41:53.043Z,100097.66
2023-04-18T03:44:56.436Z,100102.81
2023-04-18T03:47:59.188Z,100098.34
2023-04-18T03:51:02.701Z,100101.16
2023-04-18T03:54:06.392Z,100100.25
2023-04-18T03:57:09.346Z,100106.62
2023-04-18T04:00:12.603Z,100106.47
2023-04-18T04:03:18.389Z,100109.91
2023-04-18T04:06:21.456Z,100107.16
2023-04-18T04:09:24.105Z,100120.22
2023-04-18T04:12:27.202Z,100121.28
2023-04-18T04:15:29.962Z,100119.38
2023-04-18T04:18:33.244Z,100119.28
2023-04-18T04:21:36.067Z,100132.28
2023-04-18T04:24:39.590Z,100128.50
2023-04-18T04:27:42.789Z,100134.78
2023-04-18T04:30:46.471Z,100130.34
2023-04-18T04:33:49.065Z,100140.72
2023-04-18T04:36:51.852Z,100141.78
2023-04-18T04:39:56.499Z,100148.72
2023-04-18T04:43:01.455Z,100145.31
2023-04-18T04:46:07.487Z,100149.59
2023-04-18T04:49:10.582Z,100151.16
2023-04-18T04:52:13.241Z,100157.41
2023-04-18T04:55:15.909Z,100153.22
2023-04-18T04:58:19.126Z,100148.94
2023-04-18T05:01:24.610Z,100157.72
2023-04-18T05:04:27.378Z,100155.28
2023-04-18T05:07:30.812Z,100162.22
2023-04-18T05:10:34.767Z,100160.53
2023-04-18T05:13:37.317Z,100163.28
2023-04-18T05:16:39.939Z,100157.19
2023-04-18T05:19:44.204Z,100162.34
2023-04-18T05:22:46.885Z,100162.41
2023-04-18T05:25:49.959Z,100169.47
2023-04-18T05:28:52.545Z,100159.91
2023-04-18T05:31:55.219Z,100167.84
2023-04-18T05:34:57.840Z,100175.91
2023-04-18T05:38:00.691Z,100176.00
2023-04-18T05:41:03.341Z,100171.75
2023-04-18T05:44:06.075Z,100174.41
2023-04-18T05:47:08.704Z,100177.09
2023-04-18T05:50:11.379Z,100172.75
2023-04-18T05:53:13.971Z,100174.59
2023-04-18T05:56:16.567Z,100176.59
2023-04-18T05:59:19.205Z,100178.69
2023-04-18T06:02:22.237Z,100174.50
2023-04-18T06:05:25.591Z,100182.44
2023-04-18T06:08:28.176Z,100180.84
2023-04-18T06:11:33.621Z,100179.22
2023-04-18T06:14:35.894Z,100186.34
2023-04-18T06:17:38.866Z,100175.09
2023-04-18T06:20:42.191Z,100178.69
2023-04-18T06:23:45.052Z,100183.31
2023-04-18T06:26:47.363Z,100183.37
2023-04-18T06:29:50.261Z,100181.75
2023-04-18T06:32:52.994Z,100189.87
2023-04-18T06:35:56.072Z,100185.53
2023-04-18T06:38:58.405Z,100191.50
2023-04-18T06:42:02.505Z,100192.50
2023-04-18T06:45:06.468Z,100189.41
2023-04-18T06:48:10.870Z,100194.03
2023-04-18T06:51:14.146Z,100185.59
2023-04-18T06:54:17.014Z,100187.72
2023-04-18T06:57:19.359Z,100190.47
2023-04-18T07:00:22.369Z,100188.75
2023-04-18T07:03:24.863Z,100202.97
2023-04-18T07:06:27.895Z,100197.00
2023-04-18T07:09:30.190Z,100201.62
2023-04-18T07:12:33.853Z,100198.28
2023-04-18T07:15:36.293Z,100199.22
2023-04-18T07:18:39.227Z,100201.25
2023-04-18T07:21:44.934Z,100203.00
2023-04-18T07:24:47.907Z,100203.06
2023-04-18T07:27:50.230Z,100201.44
2023-04-18T07:30:53.143Z,100208.53
2023-04-18T07:33:55.670Z,100205.91
2023-04-18T07:36:58.800Z,100209.50
2023-04-18T07:40:01.126Z,100214.00
2023-04-18T07:43:04.040Z,100217.53
2023-04-18T07:46:06.555Z,100221.13
2023-04-18T07:49:09.433Z,100223.87
2023-04-18T07:52:12.680Z,100229.28
2023-04-18T07:55:15.870Z,100231.03
2023-04-18T07:58:18.163Z,100233.66
2023-04-18T08:01:24.209Z,100233.91
2023-04-18T08:04:29.749Z,100233.91
2023-04-18T08:07:32.788Z,100237.59
2023-04-18T08:10:35.884Z,100233.19
2023-04-18T08:13:38.526Z,100239.38
2023-04-18T08:16:41.286Z,100238.50
2023-04-18T08:19:45.595Z,100237.75
2023-04-18T08:23:05.092Z,100232.53
2023-04-18T08:26:09.309Z,100237.88
2023-04-18T08:29:12.478Z,100232.63
2023-04-18T08:32:15.348Z,100237.03
2023-04-18T08:35:17.922Z,100232.63
2023-04-18T08:38:20.674Z,100230.00
2023-04-18T08:41:27.042Z,100230.69
2023-04-18T08:44:29.907Z,100234.09
2023-04-18T08:47:35.203Z,100230.50
2023-04-18T08:50:37.834Z,100233.94
2023-04-18T08:53:42.167Z,100240.47
2023-04-18T08:56:45.036Z,100231.31
2023-04-18T08:59:50.364Z,100232.31
2023-04-18T09:02:59.538Z,100232.03
2023-04-18T09:06:16.154Z,100222.00
2023-04-18T09:09:18.820Z,100228.94
2023-04-18T09:12:22.847Z,100232.25
2023-04-18T09:15:29.822Z,100232.94
2023-04-18T09:18:32.544Z,100228.31
2023-04-18T09:21:36.262Z,100243.66
2023-04-18T09:24:40.133Z,100231.44
2023-04-18T09:27:42.672Z,100245.16
2023-04-18T09:30:46.672Z,100224.63
2023-04-18T09:33:54.525Z,100235.31
2023-04-18T09:37:10.663Z,100238.75
2023-04-18T09:40:16.988Z,100232.94
2023-04-18T09:43:20.837Z,100226.94
2023-04-18T09:46:23.650Z,100236.47
2023-04-18T09:49:26.974Z,100224.50
2023-04-18T09:52:32.804Z,100226.22
2023-04-18T09:55:35.704Z,100233.19
2023-04-18T09:58:41.073Z,100227.28
2023-04-18T10:01:47.413Z,100225.53
2023-04-18T10:04:53.453Z,100215.06
2023-04-18T10:07:56.292Z,100219.72
2023-04-18T10:10:59.422Z,100226.47
2023-04-18T10:14:03.350Z,100220.47
2023-04-18T10:17:07.409Z,100222.72
2023-04-18T10:20:15.455Z,100210.81
2023-04-18T10:23:37.916Z,100217.31
2023-04-18T10:26:46.990Z,100213.03
2023-04-18T10:29:51.481Z,100216.09
2023-04-18T10:32:55.543Z,100215.06
2023-04-18T10:35:59.951Z,100216.50
2023-04-18T10:39:21.616Z,100216.50
2023-04-18T10:42:54.009Z,100210.00
2023-04-18T10:46:23.859Z,100221.16
2023-04-18T10:49:36.167Z,100218.53
2023-04-18T10:52:38.555Z,100215.97
2023-04-18T10:55:44.720Z,100214.22
2023-04-18T10:58:51.293Z,100213.31
2023-04-18T11:01:59.882Z,100210.56
2023-04-18T11:05:04.840Z,100210.69
2023-04-18T11:08:21.777Z,100204.69
2023-04-18T11:11:24.669Z,100207.22
2023-04-18T11:14:39.642Z,100202.56
2023-04-18T11:17:41.998Z,100201.97
2023-04-18T11:20:49.726Z,100213.53
2023-04-18T11:23:52.104Z,100212.12
2023-04-18T11:26:56.077Z,100207.75
2023-04-18T11:29:58.999Z,100224.81
2023-04-18T11:33:05.082Z,100214.44
2023-04-18T11:36:07.681Z,100212.72
2023-04-18T11:39:10.690Z,100212.72
2023-04-18T11:42:13.074Z,100216.97
2023-04-18T11:45:16.013Z,100209.78
2023-04-18T11:48:19.020Z,100209.00
2023-04-18T11:51:31.693Z,100215.25
2023-04-18T11:54:37.663Z,100208.12
2023-04-18T11:57:41.104Z,100207.41
2023-04-18T12:00:43.512Z,100210.22
2023-04-18T12:04:02.880Z,100204.16
2023-04-18T12:07:05.569Z,100204.19
2023-04-18T12:10:09.698Z,100206.94
2023-04-18T12:13:12.342Z,100201.53
2023-04-18T12:16:15.280Z,100200.66
2023-04-18T12:19:17.844Z,100201.41
2023-04-18T12:22:23.914Z,100190.66
2023-04-18T12:25:27.732Z,100196.84
2023-04-18T12:28:30.993Z,100196.59
2023-04-18T12:31:33.452Z,100201.03
2023-04-18T12:34:36.359Z,100201.03
2023-04-18T12:37:38.657Z,100201.16
2023-04-18T12:40:41.536Z,100199.50
2023-04-18T12:43:43.828Z,100195.22
2023-04-18T12:46:46.717Z,100201.50
2023-04-18T12:49:49.047Z,100203.34
2023-04-18T12:52:53.333Z,100208.59
2023-04-18T12:55:55.631Z,100214.00
2023-04-18T12:58:58.504Z,100199.03
2023-04-18T13:02:00.893Z,100200.84
2023-04-18T13:05:04.617Z,100198.19
2023-04-18T13:08:16.321Z,100202.56
2023-04-18T13:11:22.463Z,100195.56
2023-04-18T13:14:24.901Z,100200.69
2023-04-18T13:17:27.812Z,100201.41
2023-04-18T13:20:30.657Z,100202.63
2023-04-18T13:23:33.559Z,100205.81
2023-04-18T13:26:37.618Z,100203.81
2023-04-18T13:29:41.758Z,100196.09
2023-04-18T13:32:44.159Z,100189.31
2023-04-18T13:35:47.293Z,100190.56
2023-04-18T13:38:50.386Z,100196.44
2023-04-18T13:41:53.327Z,100196.56
2023-04-18T13:44:55.609Z,100192.19
2023-04-18T13:47:58.645Z,100192.78
2023-04-18T13:51:02.449Z,100188.78
2023-04-18T13:54:05.384Z,100194.47
2023-04-18T13:57:11.664Z,100205.22
2023-04-18T14:00:15.209Z,100199.00
2023-04-18T14:03:17.904Z,100205.06
2023-04-18T14:06:21.072Z,100198.66
2023-04-18T14:09:23.919Z,100203.16
2023-04-18T14:12:26.904Z,100199.84
2023-04-18T14:15:30.107Z,100188.38
2023-04-18T14:18:32.862Z,100188.69
2023-04-18T14:21:35.968Z,100188.06
2023-04-18T14:24:38.609Z,100185.59
2023-04-18T14:27:41.336Z,100184.88
2023-04-18T14:30:44.273Z,100183.09
2023-04-18T14:33:46.873Z,100177.06
2023-04-18T14:36:49.440Z,100179.78
2023-04-18T14:39:52.018Z,100177.19
2023-04-18T14:42:54.615Z,100182.72
2023-04-18T14:45:58.993Z,100192.50
2023-04-18T14:49:02.357Z,100195.19
2023-04-18T14:52:05.081Z,100193.44
2023-04-18T14:55:08.490Z,100185.44
2023-04-18T14:58:11.133Z,100182.87
2023-04-18T15:01:13.733Z,100187.38
2023-04-18T15:04:16.519Z,100188.34
2023-04-18T15:07:19.457Z,100193.66
2023-04-18T15:10:22.599Z,100185.69
2023-04-18T15:13:25.569Z,100202.50
2023-04-18T15:16:28.343Z,100186.72
2023-04-18T15:19:31.326Z,100183.25
2023-04-18T15:22:34.356Z,100194.75
2023-04-18T15:25:36.986Z,100188.56
2023-04-18T15:28:39.680Z,100185.91
2023-04-18T15:31:42.276Z,100189.47
2023-04-18T15:34:44.953Z,100195.66
2023-04-18T15:37:47.589Z,100190.38
2023-04-18T15:40:50.233Z,100188.59
2023-04-18T15:43:53.006Z,100194.78
2023-04-18T15:46:55.723Z,100191.25
2023-04-18T15:49:58.422Z,100197.38
2023-04-18T15:53:01.946Z,100191.19
2023-04-18T15:56:06.006Z,100188.53
2023-04-18T15:59:10.967Z,100196.47
2023-04-18T16:02:13.593Z,100196.44
2023-04-18T16:05:16.301Z,100195.53
2023-04-18T16:08:18.878Z,100193.81
2023-04-18T16:11:21.882Z,100202.56
2023-04-18T16:14:24.898Z,100209.66
2023-04-18T16:17:27.542Z,100209.56
2023-04-18T16:20:30.176Z,100208.69
2023-04-18T16:23:32.890Z,100217.44
2023-04-18T16:26:36.221Z,100222.72
2023-04-18T16:29:44.181Z,100216.44
2023-04-18T16:32:46.953Z,100215.47
2023-04-18T16:35:49.587Z,100215.59
2023-04-18T16:38:54.499Z,100215.44
2023-04-18T16:41:57.724Z,100216.22
2023-04-18T16:45:03.878Z,100213.56
2023-04-18T16:48:06.573Z,100220.56
2023-04-18T16:51:09.162Z,100215.22
2023-04-18T16:54:14.884Z,100221.31
2023-04-18T16:57:17.901Z,100220.44
2023-04-18T17:00:21.155Z,100223.87
2023-04-18T17:03:25.925Z,100228.41
2023-04-18T17:06:30.883Z,100227.44
2023-04-18T17:09:34.233Z,100233.50
2023-04-18T17:12:37.603Z,100222.06
2023-04-18T17:15:40.526Z,100231.72
2023-04-18T17:18:43.165Z,100228.13
2023-04-18T17:21:46.377Z,100233.34
2023-04-18T17:24:49.038Z,100235.03
2023-04-18T17:27:51.630Z,100233.25
2023-04-18T17:30:54.303Z,100234.88
2023-04-18T17:33:57.911Z,100237.41
2023-04-18T17:37:00.467Z,100236.50
2023-04-18T17:40:06.686Z,100240.03
2023-04-18T17:43:10.720Z,100237.31
2023-04-18T17:46:13.840Z,100239.91
2023-04-18T17:49:16.829Z,100241.63
2023-04-18T17:52:19.456Z,100253.87
2023-04-18T17:55:22.078Z,100250.31
2023-04-18T17:58:28.041Z,100256.41
2023-04-18T18:01:31.710Z,100249.28
2023-04-18T18:04:34.884Z,100259.75
2023-04-18T18:07:38.351Z,100261.44
2023-04-18T18:10:42.656Z,100268.41
2023-04-18T18:13:46.700Z,100265.66
2023-04-18T18:16:49.793Z,100274.37
2023-04-18T18:19:52.097Z,100270.81
2023-04-18T18:22:55.688Z,100275.97
2023-04-18T18:25:58.103Z,100275.06
2023-04-18T18:29:01.302Z,100277.63
2023-04-18T18:32:03.642Z,100285.44
2023-04-18T18:35:07.376Z,100279.28
2023-04-18T18:38:10.112Z,100280.97
2023-04-18T18:41:13.038Z,100281.84
2023-04-18T18:44:15.386Z,100278.41
2023-04-18T18:47:18.504Z,100288.91
2023-04-18T18:50:20.941Z,100281.03
2023-04-18T18:53:24.038Z,100285.41
2023-04-18T18:56:26.369Z,100288.88
2023-04-18T18:59:29.750Z,100295.03
2023-04-18T19:02:32.173Z,100295.88
2023-04-18T19:05:35.801Z,100298.53
2023-04-18T19:08:38.131Z,100298.50
2023-04-18T19:11:40.981Z,100302.91
2023-04-18T19:14:43.252Z,100312.53
2023-04-18T19:17:46.163Z,100333.56
2023-04-18T19:20:49.468Z,100335.31
2023-04-18T19:23:52.473Z,100333.53
2023-04-18T19:26:54.828Z,100330.88
2023-04-18T19:29:57.734Z,100334.47
2023-04-18T19:33:00.064Z,100341.59
2023-04-18T19:36:03.281Z,100335.31
2023-04-18T19:39:05.742Z,100334.44
2023-04-18T19:42:08.816Z,100345.69
2023-04-18T19:45:12.056Z,100334.28
2023-04-18T19:48:14.962Z,100347.34
2023-04-18T19:51:17.356Z,100345.59
2023-04-18T19:54:21.857Z,100349.22
2023-04-18T19:57:25.914Z,100355.47
2023-04-18T20:00:29.390Z,100347.31
2023-04-18T20:03:35.061Z,100349.03
2023-04-18T20:06:38.146Z,100351.66
2023-04-18T20:09:41.180Z,100360.62
2023-04-18T20:12:43.810Z,100357.81
2023-04-18T20:15:46.479Z,100364.12
2023-04-18T20:18:51.911Z,100356.09
2023-04-18T20:21:55.518Z,100361.38
2023-04-18T20:24:58.185Z,100353.41
2023-04-18T20:28:00.974Z,100358.66
2023-04-18T20:31:03.771Z,100357.72
2023-04-18T20:34:06.691Z,100359.22
2023-04-18T20:37:10.113Z,100353.16
2023-04-18T20:40:12.867Z,100350.47
2023-04-18T20:43:17.494Z,100341.69
2023-04-18T20:46:20.273Z,100354.78
2023-04-18T20:49:22.911Z,100353.84
2023-04-18T20:52:25.759Z,100352.16
2023-04-18T20:55:28.373Z,100347.81
2023-04-18T20:58:31.081Z,100363.63
2023-04-18T21:01:35.561Z,100357.44
2023-04-18T21:04:39.976Z,100352.09
2023-04-18T21:07:47.111Z,100354.78
2023-04-18T21:10:51.805Z,100352.94
2023-04-18T21:13:54.428Z,100358.22
2023-04-18T21:16:57.591Z,100347.66
2023-04-18T21:20:00.322Z,100351.03
2023-04-18T21:23:03.061Z,100354.69
2023-04-18T21:26:05.787Z,100341.41
2023-04-18T21:29:08.370Z,100352.69
2023-04-18T21:32:11.039Z,100347.41
2023-04-18T21:35:13.655Z,100349.97
2023-04-18T21:38:16.281Z,100342.84
2023-04-18T21:41:19.318Z,100349.84
2023-04-18T21:44:22.011Z,100339.28
2023-04-18T21:47:25.932Z,100340.06
2023-04-18T21:50:28.661Z,100339.19
2023-04-18T21:53:31.298Z,100342.66
2023-04-18T21:56:33.958Z,100349.91
2023-04-18T21:59:36.607Z,100334.81
2023-04-18T22:02:39.352Z,100337.25
2023-04-18T22:05:43.051Z,100333.78
2023-04-18T22:08:45.864Z,100338.06
2023-04-18T22:11:48.817Z,100338.87
2023-04-18T22:14:52.885Z,100335.50
2023-04-18T22:17:55.834Z,100328.19
2023-04-18T22:20:58.721Z,100333.41
2023-04-18T22:24:01.458Z,100329.91
2023-04-18T22:27:04.286Z,100330.00
2023-04-18T22:30:07.206Z,100322.16
2023-04-18T22:33:09.787Z,100319.41
2023-04-18T22:36:12.407Z,100323.75
2023-04-18T22:39:14.971Z,100320.19
2023-04-18T22:42:17.719Z,100316.78
2023-04-18T22:45:20.417Z,100315.88
2023-04-18T22:48:23.725Z,100311.53
2023-04-18T22:51:28.566Z,100313.34
2023-04-18T22:54:31.221Z,100314.25
2023-04-18T22:57:33.874Z,100298.50
2023-04-18T23:00:36.585Z,100301.06
2023-04-18T23:03:39.279Z,100300.16
2023-04-18T23:06:41.897Z,100301.94
2023-04-18T23:09:44.878Z,100286.22
2023-04-18T23:12:47.805Z,100291.44
2023-04-18T23:15:50.378Z,100281.81
2023-04-18T23:18:52.946Z,100283.59
2023-04-18T23:21:55.567Z,100272.25
2023-04-18T23:24:58.206Z,100273.16
2023-04-18T23:28:00.766Z,100273.12
2023-04-18T23:31:03.379Z,100265.19
2023-04-18T23:34:06.089Z,100267.84
2023-04-18T23:37:09.719Z,100261.75
2023-04-18T23:40:12.296Z,100254.75
2023-04-18T23:43:15.098Z,100253.87
2023-04-18T23:46:17.714Z,100247.78
2023-04-18T23:49:20.497Z,100246.00
2023-04-18T23:52:23.202Z,100242.47
2023-04-18T23:55:25.932Z,100231.09
2023-04-18T23:58:28.525Z,100238.97
